Tonghe, China
Current Conditions -  °F | °C
As of 12:00 PM on Friday 28 Nov 2014 (Local Time) from ZYHB Reporting Station
Clear Clear  
Wind Chill: 20°   Ceiling: Unl
Heat Index: 28°   Visibility: 6mi
Dew Point: -2°   Wind: 9mph
Humidity: 27%   Direction: 40°NE
Pressure: 30.12"   Gusts: NA
Location:  45.97°N, 128.73°E
Report Text: ZYHB 280400Z 04004MPS CAVOK M02/M19 Q1020 NOSIG
Loading
Personal Weather Stations






























Interactive Weather Map New forecast layout! Learn more

10-Day Weather Forecast

Advertisements
Track Severe Weather on mobile